sensor_id;sensor_type;location;lat;lon;timestamp;P1;durP1;ratioP1;P2;durP2;ratioP2
7047;SDS011;3565;53.254;10.352;2022-10-17T00:01:55;8.77;;;6.63;;
7047;SDS011;3565;53.254;10.352;2022-10-17T00:07:11;9.40;;;6.40;;
7047;SDS011;3565;53.254;10.352;2022-10-17T00:09:41;7.63;;;6.30;;
7047;SDS011;3565;53.254;10.352;2022-10-17T00:12:10;7.13;;;6.30;;
7047;SDS011;3565;53.254;10.352;2022-10-17T00:14:48;9.17;;;6.40;;
7047;SDS011;3565;53.254;10.352;2022-10-17T00:17:17;7.97;;;6.37;;
7047;SDS011;3565;53.254;10.352;2022-10-17T00:19:46;6.53;;;5.63;;
7047;SDS011;3565;53.254;10.352;2022-10-17T00:22:15;8.27;;;6.67;;
7047;SDS011;3565;53.254;10.352;2022-10-17T00:24:43;7.00;;;6.30;;
7047;SDS011;3565;53.254;10.352;2022-10-17T00:27:12;6.47;;;5.87;;
7047;SDS011;3565;53.254;10.352;2022-10-17T00:29:40;6.97;;;6.13;;
7047;SDS011;3565;53.254;10.352;2022-10-17T00:32:09;7.23;;;5.80;;
7047;SDS011;3565;53.254;10.352;2022-10-17T00:34:37;6.30;;;5.70;;
7047;SDS011;3565;53.254;10.352;2022-10-17T00:37:06;6.27;;;5.73;;
7047;SDS011;3565;53.254;10.352;2022-10-17T00:39:35;6.00;;;5.50;;
7047;SDS011;3565;53.254;10.352;2022-10-17T00:42:04;9.53;;;6.10;;
7047;SDS011;3565;53.254;10.352;2022-10-17T00:47:28;7.10;;;6.37;;
7047;SDS011;3565;53.254;10.352;2022-10-17T00:49:58;7.37;;;6.07;;
7047;SDS011;3565;53.254;10.352;2022-10-17T00:52:27;6.70;;;5.90;;
7047;SDS011;3565;53.254;10.352;2022-10-17T00:54:58;7.50;;;6.07;;
7047;SDS011;3565;53.254;10.352;2022-10-17T00:57:30;7.40;;;5.80;;
7047;SDS011;3565;53.254;10.352;2022-10-17T00:59:59;6.90;;;6.20;;
7047;SDS011;3565;53.254;10.352;2022-10-17T01:02:31;7.33;;;6.53;;
7047;SDS011;3565;53.254;10.352;2022-10-17T01:05:01;7.47;;;6.77;;
7047;SDS011;3565;53.254;10.352;2022-10-17T01:07:29;8.13;;;6.73;;
7047;SDS011;3565;53.254;10.352;2022-10-17T01:09:58;6.87;;;5.90;;
7047;SDS011;3565;53.254;10.352;2022-10-17T01:12:28;6.43;;;5.83;;
7047;SDS011;3565;53.254;10.352;2022-10-17T01:15:04;6.73;;;6.07;;
7047;SDS011;3565;53.254;10.352;2022-10-17T01:17:39;6.93;;;6.23;;
7047;SDS011;3565;53.254;10.352;2022-10-17T01:20:19;7.37;;;6.40;;
7047;SDS011;3565;53.254;10.352;2022-10-17T01:23:15;7.40;;;6.70;;
7047;SDS011;3565;53.254;10.352;2022-10-17T01:25:49;7.07;;;6.23;;
7047;SDS011;3565;53.254;10.352;2022-10-17T01:28:26;6.50;;;5.90;;
7047;SDS011;3565;53.254;10.352;2022-10-17T01:31:15;7.10;;;5.90;;
7047;SDS011;3565;53.254;10.352;2022-10-17T01:33:46;8.17;;;6.33;;
7047;SDS011;3565;53.254;10.352;2022-10-17T01:36:23;6.60;;;6.00;;
7047;SDS011;3565;53.254;10.352;2022-10-17T01:38:57;6.83;;;6.20;;
7047;SDS011;3565;53.254;10.352;2022-10-17T01:41:31;6.60;;;6.00;;
7047;SDS011;3565;53.254;10.352;2022-10-17T01:44:03;6.20;;;5.47;;
7047;SDS011;3565;53.254;10.352;2022-10-17T01:46:36;6.90;;;6.20;;
7047;SDS011;3565;53.254;10.352;2022-10-17T01:49:07;7.43;;;6.47;;
7047;SDS011;3565;53.254;10.352;2022-10-17T01:51:37;7.23;;;6.53;;
7047;SDS011;3565;53.254;10.352;2022-10-17T01:54:10;7.07;;;6.37;;
7047;SDS011;3565;53.254;10.352;2022-10-17T01:56:40;7.37;;;5.80;;
7047;SDS011;3565;53.254;10.352;2022-10-17T01:59:12;6.90;;;6.30;;
7047;SDS011;3565;53.254;10.352;2022-10-17T02:01:45;7.20;;;6.07;;
7047;SDS011;3565;53.254;10.352;2022-10-17T02:04:15;6.80;;;6.20;;
7047;SDS011;3565;53.254;10.352;2022-10-17T02:06:44;6.50;;;5.50;;
7047;SDS011;3565;53.254;10.352;2022-10-17T02:09:16;6.60;;;6.07;;
7047;SDS011;3565;53.254;10.352;2022-10-17T02:11:49;6.27;;;5.27;;
7047;SDS011;3565;53.254;10.352;2022-10-17T02:14:44;6.77;;;5.70;;
7047;SDS011;3565;53.254;10.352;2022-10-17T02:17:18;6.20;;;5.60;;
7047;SDS011;3565;53.254;10.352;2022-10-17T02:19:54;5.80;;;5.03;;
7047;SDS011;3565;53.254;10.352;2022-10-17T02:22:29;6.07;;;5.47;;
7047;SDS011;3565;53.254;10.352;2022-10-17T02:25:01;6.00;;;5.47;;
7047;SDS011;3565;53.254;10.352;2022-10-17T02:27:33;5.83;;;5.30;;
7047;SDS011;3565;53.254;10.352;2022-10-17T02:30:06;5.47;;;4.93;;
7047;SDS011;3565;53.254;10.352;2022-10-17T02:32:40;7.37;;;5.00;;
7047;SDS011;3565;53.254;10.352;2022-10-17T02:35:19;6.57;;;4.50;;
7047;SDS011;3565;53.254;10.352;2022-10-17T02:37:51;5.73;;;4.40;;
7047;SDS011;3565;53.254;10.352;2022-10-17T02:40:21;7.77;;;4.70;;
7047;SDS011;3565;53.254;10.352;2022-10-17T02:42:52;5.63;;;5.07;;
7047;SDS011;3565;53.254;10.352;2022-10-17T02:45:22;4.90;;;4.43;;
7047;SDS011;3565;53.254;10.352;2022-10-17T02:47:54;4.97;;;4.30;;
7047;SDS011;3565;53.254;10.352;2022-10-17T02:50:24;6.00;;;4.30;;
7047;SDS011;3565;53.254;10.352;2022-10-17T02:52:55;4.60;;;4.20;;
7047;SDS011;3565;53.254;10.352;2022-10-17T02:55:28;6.80;;;4.50;;
7047;SDS011;3565;53.254;10.352;2022-10-17T02:57:59;5.43;;;4.83;;
7047;SDS011;3565;53.254;10.352;2022-10-17T03:00:32;5.43;;;4.23;;
7047;SDS011;3565;53.254;10.352;2022-10-17T03:03:01;4.37;;;3.97;;
7047;SDS011;3565;53.254;10.352;2022-10-17T03:05:33;4.40;;;4.10;;
7047;SDS011;3565;53.254;10.352;2022-10-17T03:08:02;4.90;;;4.20;;
7047;SDS011;3565;53.254;10.352;2022-10-17T03:10:31;4.90;;;4.43;;
7047;SDS011;3565;53.254;10.352;2022-10-17T03:12:59;4.90;;;4.20;;
7047;SDS011;3565;53.254;10.352;2022-10-17T03:15:28;6.03;;;4.17;;
7047;SDS011;3565;53.254;10.352;2022-10-17T03:17:57;4.67;;;4.30;;
7047;SDS011;3565;53.254;10.352;2022-10-17T03:20:26;4.63;;;4.23;;
7047;SDS011;3565;53.254;10.352;2022-10-17T03:22:54;4.73;;;4.00;;
7047;SDS011;3565;53.254;10.352;2022-10-17T03:25:23;6.17;;;4.40;;
7047;SDS011;3565;53.254;10.352;2022-10-17T03:27:52;4.63;;;4.17;;
7047;SDS011;3565;53.254;10.352;2022-10-17T03:30:21;4.90;;;3.93;;
7047;SDS011;3565;53.254;10.352;2022-10-17T03:32:50;4.37;;;3.93;;
7047;SDS011;3565;53.254;10.352;2022-10-17T03:35:18;4.47;;;3.67;;
7047;SDS011;3565;53.254;10.352;2022-10-17T03:37:47;5.07;;;3.93;;
7047;SDS011;3565;53.254;10.352;2022-10-17T03:40:16;6.50;;;4.20;;
7047;SDS011;3565;53.254;10.352;2022-10-17T03:42:45;4.10;;;3.70;;
7047;SDS011;3565;53.254;10.352;2022-10-17T03:45:13;4.00;;;3.70;;
7047;SDS011;3565;53.254;10.352;2022-10-17T03:47:42;4.00;;;3.70;;
7047;SDS011;3565;53.254;10.352;2022-10-17T03:50:11;4.63;;;4.10;;
7047;SDS011;3565;53.254;10.352;2022-10-17T03:52:40;4.97;;;3.97;;
7047;SDS011;3565;53.254;10.352;2022-10-17T03:55:10;4.30;;;3.63;;
7047;SDS011;3565;53.254;10.352;2022-10-17T03:57:39;5.67;;;3.77;;
7047;SDS011;3565;53.254;10.352;2022-10-17T04:00:09;4.00;;;3.60;;
7047;SDS011;3565;53.254;10.352;2022-10-17T04:02:39;4.60;;;4.20;;
7047;SDS011;3565;53.254;10.352;2022-10-17T04:05:09;5.33;;;3.70;;
7047;SDS011;3565;53.254;10.352;2022-10-17T04:07:38;5.43;;;3.83;;
7047;SDS011;3565;53.254;10.352;2022-10-17T04:10:08;4.00;;;3.60;;
7047;SDS011;3565;53.254;10.352;2022-10-17T04:12:38;4.40;;;3.80;;
7047;SDS011;3565;53.254;10.352;2022-10-17T04:15:08;4.47;;;3.70;;
7047;SDS011;3565;53.254;10.352;2022-10-17T04:17:37;4.33;;;3.77;;
7047;SDS011;3565;53.254;10.352;2022-10-17T04:20:07;3.83;;;3.53;;
7047;SDS011;3565;53.254;10.352;2022-10-17T04:22:36;3.70;;;3.40;;
7047;SDS011;3565;53.254;10.352;2022-10-17T04:25:06;3.80;;;3.27;;
7047;SDS011;3565;53.254;10.352;2022-10-17T04:27:35;4.43;;;3.53;;
7047;SDS011;3565;53.254;10.352;2022-10-17T04:30:04;6.20;;;3.80;;
7047;SDS011;3565;53.254;10.352;2022-10-17T04:32:35;5.70;;;4.07;;
7047;SDS011;3565;53.254;10.352;2022-10-17T04:35:05;3.87;;;3.47;;
7047;SDS011;3565;53.254;10.352;2022-10-17T04:37:35;5.00;;;3.50;;
7047;SDS011;3565;53.254;10.352;2022-10-17T04:40:04;3.90;;;3.50;;
7047;SDS011;3565;53.254;10.352;2022-10-17T04:42:35;3.77;;;3.40;;
7047;SDS011;3565;53.254;10.352;2022-10-17T04:45:05;3.87;;;3.47;;
7047;SDS011;3565;53.254;10.352;2022-10-17T04:47:35;3.87;;;3.50;;
7047;SDS011;3565;53.254;10.352;2022-10-17T04:52:52;4.47;;;3.43;;
7047;SDS011;3565;53.254;10.352;2022-10-17T04:55:21;3.80;;;3.50;;
7047;SDS011;3565;53.254;10.352;2022-10-17T04:57:49;3.83;;;3.50;;
7047;SDS011;3565;53.254;10.352;2022-10-17T05:00:18;4.07;;;3.43;;
7047;SDS011;3565;53.254;10.352;2022-10-17T05:02:47;5.27;;;3.53;;
7047;SDS011;3565;53.254;10.352;2022-10-17T05:05:16;4.03;;;3.73;;
7047;SDS011;3565;53.254;10.352;2022-10-17T05:07:45;5.23;;;3.53;;
7047;SDS011;3565;53.254;10.352;2022-10-17T05:10:14;8.10;;;3.67;;
7047;SDS011;3565;53.254;10.352;2022-10-17T05:12:43;6.43;;;3.70;;
7047;SDS011;3565;53.254;10.352;2022-10-17T05:15:13;3.83;;;3.53;;
7047;SDS011;3565;53.254;10.352;2022-10-17T05:17:42;4.53;;;3.50;;
7047;SDS011;3565;53.254;10.352;2022-10-17T05:20:11;3.90;;;3.30;;
7047;SDS011;3565;53.254;10.352;2022-10-17T05:22:39;4.03;;;3.63;;
7047;SDS011;3565;53.254;10.352;2022-10-17T05:25:08;3.57;;;3.27;;
7047;SDS011;3565;53.254;10.352;2022-10-17T05:27:37;4.10;;;3.40;;
7047;SDS011;3565;53.254;10.352;2022-10-17T05:30:07;4.73;;;3.60;;
7047;SDS011;3565;53.254;10.352;2022-10-17T05:32:37;3.80;;;3.40;;
7047;SDS011;3565;53.254;10.352;2022-10-17T05:35:06;3.90;;;3.50;;
7047;SDS011;3565;53.254;10.352;2022-10-17T05:37:35;5.23;;;3.70;;
7047;SDS011;3565;53.254;10.352;2022-10-17T05:40:05;5.43;;;3.57;;
7047;SDS011;3565;53.254;10.352;2022-10-17T05:42:35;4.17;;;3.63;;
7047;SDS011;3565;53.254;10.352;2022-10-17T05:45:04;4.33;;;3.70;;
7047;SDS011;3565;53.254;10.352;2022-10-17T05:47:34;5.50;;;3.63;;
7047;SDS011;3565;53.254;10.352;2022-10-17T05:50:04;4.10;;;3.80;;
7047;SDS011;3565;53.254;10.352;2022-10-17T05:52:35;6.30;;;3.60;;
7047;SDS011;3565;53.254;10.352;2022-10-17T05:55:05;4.40;;;4.00;;
7047;SDS011;3565;53.254;10.352;2022-10-17T05:57:35;6.60;;;4.17;;
7047;SDS011;3565;53.254;10.352;2022-10-17T06:00:05;4.63;;;4.23;;
7047;SDS011;3565;53.254;10.352;2022-10-17T06:02:36;4.23;;;3.83;;
7047;SDS011;3565;53.254;10.352;2022-10-17T06:05:04;7.27;;;4.10;;
7047;SDS011;3565;53.254;10.352;2022-10-17T06:07:34;4.10;;;3.70;;
7047;SDS011;3565;53.254;10.352;2022-10-17T06:10:04;4.57;;;4.17;;
7047;SDS011;3565;53.254;10.352;2022-10-17T06:12:34;5.70;;;3.73;;
7047;SDS011;3565;53.254;10.352;2022-10-17T06:15:04;4.67;;;4.27;;
7047;SDS011;3565;53.254;10.352;2022-10-17T06:17:34;6.00;;;4.10;;
7047;SDS011;3565;53.254;10.352;2022-10-17T06:20:05;6.17;;;4.17;;
7047;SDS011;3565;53.254;10.352;2022-10-17T06:22:35;4.60;;;4.20;;
7047;SDS011;3565;53.254;10.352;2022-10-17T06:25:04;6.37;;;4.80;;
7047;SDS011;3565;53.254;10.352;2022-10-17T06:27:34;6.00;;;4.57;;
7047;SDS011;3565;53.254;10.352;2022-10-17T06:30:04;6.00;;;4.90;;
7047;SDS011;3565;53.254;10.352;2022-10-17T06:32:34;5.33;;;4.60;;
7047;SDS011;3565;53.254;10.352;2022-10-17T06:35:03;6.43;;;4.20;;
7047;SDS011;3565;53.254;10.352;2022-10-17T06:37:33;5.60;;;4.90;;
7047;SDS011;3565;53.254;10.352;2022-10-17T06:40:03;5.30;;;4.80;;
7047;SDS011;3565;53.254;10.352;2022-10-17T06:42:35;6.50;;;4.70;;
7047;SDS011;3565;53.254;10.352;2022-10-17T06:45:05;6.20;;;4.90;;
7047;SDS011;3565;53.254;10.352;2022-10-17T06:47:35;5.03;;;4.57;;
7047;SDS011;3565;53.254;10.352;2022-10-17T06:50:05;7.77;;;5.03;;
7047;SDS011;3565;53.254;10.352;2022-10-17T06:52:35;5.27;;;4.60;;
7047;SDS011;3565;53.254;10.352;2022-10-17T06:55:05;5.63;;;4.90;;
7047;SDS011;3565;53.254;10.352;2022-10-17T06:57:35;4.80;;;4.40;;
7047;SDS011;3565;53.254;10.352;2022-10-17T07:00:05;5.73;;;4.70;;
7047;SDS011;3565;53.254;10.352;2022-10-17T07:02:34;6.97;;;4.50;;
7047;SDS011;3565;53.254;10.352;2022-10-17T07:05:04;4.87;;;4.37;;
7047;SDS011;3565;53.254;10.352;2022-10-17T07:07:33;4.90;;;4.50;;
7047;SDS011;3565;53.254;10.352;2022-10-17T07:10:02;6.27;;;4.70;;
7047;SDS011;3565;53.254;10.352;2022-10-17T07:12:33;4.97;;;4.13;;
7047;SDS011;3565;53.254;10.352;2022-10-17T07:15:03;4.83;;;4.43;;
7047;SDS011;3565;53.254;10.352;2022-10-17T07:17:33;4.57;;;4.17;;
7047;SDS011;3565;53.254;10.352;2022-10-17T07:20:02;5.07;;;3.93;;
7047;SDS011;3565;53.254;10.352;2022-10-17T07:22:31;4.77;;;4.00;;
7047;SDS011;3565;53.254;10.352;2022-10-17T07:25:00;4.60;;;4.10;;
7047;SDS011;3565;53.254;10.352;2022-10-17T07:27:29;4.40;;;4.00;;
7047;SDS011;3565;53.254;10.352;2022-10-17T07:29:57;4.97;;;3.50;;
7047;SDS011;3565;53.254;10.352;2022-10-17T07:32:26;4.70;;;3.53;;
7047;SDS011;3565;53.254;10.352;2022-10-17T07:34:55;6.97;;;3.90;;
7047;SDS011;3565;53.254;10.352;2022-10-17T07:37:24;5.47;;;3.60;;
7047;SDS011;3565;53.254;10.352;2022-10-17T07:39:52;5.03;;;3.70;;
7047;SDS011;3565;53.254;10.352;2022-10-17T07:42:22;5.77;;;3.50;;
7047;SDS011;3565;53.254;10.352;2022-10-17T07:44:50;4.20;;;3.50;;
7047;SDS011;3565;53.254;10.352;2022-10-17T07:47:19;6.67;;;3.43;;
7047;SDS011;3565;53.254;10.352;2022-10-17T07:49:48;3.60;;;3.30;;
7047;SDS011;3565;53.254;10.352;2022-10-17T07:52:17;3.50;;;3.20;;
7047;SDS011;3565;53.254;10.352;2022-10-17T07:54:46;3.60;;;3.30;;
7047;SDS011;3565;53.254;10.352;2022-10-17T07:57:14;3.73;;;3.33;;
7047;SDS011;3565;53.254;10.352;2022-10-17T07:59:43;3.40;;;3.10;;
7047;SDS011;3565;53.254;10.352;2022-10-17T08:02:13;4.03;;;3.20;;
7047;SDS011;3565;53.254;10.352;2022-10-17T08:04:47;3.50;;;3.20;;
7047;SDS011;3565;53.254;10.352;2022-10-17T08:07:15;3.87;;;3.10;;
7047;SDS011;3565;53.254;10.352;2022-10-17T08:09:45;3.70;;;3.00;;
7047;SDS011;3565;53.254;10.352;2022-10-17T08:12:14;5.20;;;3.13;;
7047;SDS011;3565;53.254;10.352;2022-10-17T08:14:43;4.10;;;3.07;;
7047;SDS011;3565;53.254;10.352;2022-10-17T08:17:11;3.70;;;2.80;;
7047;SDS011;3565;53.254;10.352;2022-10-17T08:19:40;3.60;;;2.50;;
7047;SDS011;3565;53.254;10.352;2022-10-17T08:22:09;2.43;;;2.20;;
7047;SDS011;3565;53.254;10.352;2022-10-17T08:24:38;4.90;;;2.97;;
7047;SDS011;3565;53.254;10.352;2022-10-17T08:27:08;3.37;;;2.70;;
7047;SDS011;3565;53.254;10.352;2022-10-17T08:29:38;7.80;;;2.93;;
7047;SDS011;3565;53.254;10.352;2022-10-17T08:32:08;4.97;;;2.60;;
7047;SDS011;3565;53.254;10.352;2022-10-17T08:34:35;4.47;;;2.90;;
7047;SDS011;3565;53.254;10.352;2022-10-17T08:37:04;3.03;;;2.70;;
7047;SDS011;3565;53.254;10.352;2022-10-17T08:39:33;4.50;;;2.70;;
7047;SDS011;3565;53.254;10.352;2022-10-17T08:42:08;4.67;;;2.90;;
7047;SDS011;3565;53.254;10.352;2022-10-17T08:44:46;4.00;;;2.77;;
7047;SDS011;3565;53.254;10.352;2022-10-17T08:47:18;2.63;;;2.37;;
7047;SDS011;3565;53.254;10.352;2022-10-17T08:49:50;3.80;;;2.70;;
7047;SDS011;3565;53.254;10.352;2022-10-17T08:52:23;4.90;;;2.87;;
7047;SDS011;3565;53.254;10.352;2022-10-17T08:54:53;4.23;;;2.73;;
7047;SDS011;3565;53.254;10.352;2022-10-17T08:57:22;3.63;;;2.90;;
7047;SDS011;3565;53.254;10.352;2022-10-17T08:59:52;3.83;;;2.70;;
7047;SDS011;3565;53.254;10.352;2022-10-17T09:02:29;2.67;;;2.47;;
7047;SDS011;3565;53.254;10.352;2022-10-17T09:05:18;3.30;;;3.00;;
7047;SDS011;3565;53.254;10.352;2022-10-17T09:08:16;3.13;;;2.93;;
7047;SDS011;3565;53.254;10.352;2022-10-17T09:10:54;6.33;;;2.67;;
7047;SDS011;3565;53.254;10.352;2022-10-17T09:13:31;6.73;;;2.80;;
7047;SDS011;3565;53.254;10.352;2022-10-17T09:19:00;3.70;;;2.80;;
7047;SDS011;3565;53.254;10.352;2022-10-17T09:21:35;3.90;;;2.83;;
7047;SDS011;3565;53.254;10.352;2022-10-17T09:24:05;3.53;;;2.97;;
7047;SDS011;3565;53.254;10.352;2022-10-17T09:26:38;3.67;;;2.77;;
7047;SDS011;3565;53.254;10.352;2022-10-17T09:29:11;3.77;;;2.57;;
7047;SDS011;3565;53.254;10.352;2022-10-17T09:31:48;3.00;;;2.70;;
7047;SDS011;3565;53.254;10.352;2022-10-17T09:34:19;3.83;;;2.70;;
7047;SDS011;3565;53.254;10.352;2022-10-17T09:36:50;5.27;;;2.63;;
7047;SDS011;3565;53.254;10.352;2022-10-17T09:39:21;4.20;;;3.00;;
7047;SDS011;3565;53.254;10.352;2022-10-17T09:41:52;3.97;;;2.70;;
7047;SDS011;3565;53.254;10.352;2022-10-17T09:44:23;3.20;;;2.70;;
7047;SDS011;3565;53.254;10.352;2022-10-17T09:47:09;3.23;;;2.70;;
7047;SDS011;3565;53.254;10.352;2022-10-17T09:49:40;3.90;;;2.73;;
7047;SDS011;3565;53.254;10.352;2022-10-17T09:52:11;3.10;;;2.80;;
7047;SDS011;3565;53.254;10.352;2022-10-17T09:54:42;6.00;;;2.93;;
7047;SDS011;3565;53.254;10.352;2022-10-17T09:57:13;3.60;;;2.90;;
7047;SDS011;3565;53.254;10.352;2022-10-17T09:59:44;5.57;;;3.07;;
7047;SDS011;3565;53.254;10.352;2022-10-17T10:02:16;5.57;;;3.07;;
7047;SDS011;3565;53.254;10.352;2022-10-17T10:04:54;2.80;;;2.60;;
7047;SDS011;3565;53.254;10.352;2022-10-17T10:07:25;3.07;;;2.77;;
7047;SDS011;3565;53.254;10.352;2022-10-17T10:09:56;5.73;;;2.80;;
7047;SDS011;3565;53.254;10.352;2022-10-17T10:12:29;3.17;;;2.50;;
7047;SDS011;3565;53.254;10.352;2022-10-17T10:14:59;4.53;;;2.83;;
7047;SDS011;3565;53.254;10.352;2022-10-17T10:17:33;4.20;;;2.70;;
7047;SDS011;3565;53.254;10.352;2022-10-17T10:20:23;4.37;;;2.50;;
7047;SDS011;3565;53.254;10.352;2022-10-17T10:23:12;5.33;;;2.50;;
7047;SDS011;3565;53.254;10.352;2022-10-17T10:25:48;4.80;;;2.60;;
7047;SDS011;3565;53.254;10.352;2022-10-17T10:28:23;3.10;;;2.80;;
7047;SDS011;3565;53.254;10.352;2022-10-17T10:30:54;4.47;;;2.50;;
7047;SDS011;3565;53.254;10.352;2022-10-17T10:33:26;4.17;;;3.00;;
7047;SDS011;3565;53.254;10.352;2022-10-17T10:35:57;3.97;;;2.60;;
7047;SDS011;3565;53.254;10.352;2022-10-17T10:38:28;3.27;;;2.57;;
7047;SDS011;3565;53.254;10.352;2022-10-17T10:41:01;3.50;;;2.60;;
7047;SDS011;3565;53.254;10.352;2022-10-17T10:43:33;4.17;;;2.50;;
7047;SDS011;3565;53.254;10.352;2022-10-17T10:46:04;5.37;;;2.90;;
7047;SDS011;3565;53.254;10.352;2022-10-17T10:48:35;3.93;;;2.90;;
7047;SDS011;3565;53.254;10.352;2022-10-17T10:51:07;5.73;;;2.77;;
7047;SDS011;3565;53.254;10.352;2022-10-17T10:53:40;5.90;;;2.83;;
7047;SDS011;3565;53.254;10.352;2022-10-17T10:56:12;3.17;;;2.87;;
7047;SDS011;3565;53.254;10.352;2022-10-17T10:58:48;5.97;;;2.80;;
7047;SDS011;3565;53.254;10.352;2022-10-17T11:01:23;5.30;;;2.87;;
7047;SDS011;3565;53.254;10.352;2022-10-17T11:03:56;4.70;;;2.80;;
7047;SDS011;3565;53.254;10.352;2022-10-17T11:06:57;4.50;;;3.10;;
7047;SDS011;3565;53.254;10.352;2022-10-17T11:09:30;6.07;;;2.90;;
7047;SDS011;3565;53.254;10.352;2022-10-17T11:12:08;4.67;;;3.10;;
7047;SDS011;3565;53.254;10.352;2022-10-17T11:14:40;5.53;;;3.17;;
7047;SDS011;3565;53.254;10.352;2022-10-17T11:17:14;7.57;;;3.23;;
7047;SDS011;3565;53.254;10.352;2022-10-17T11:19:47;5.13;;;3.20;;
7047;SDS011;3565;53.254;10.352;2022-10-17T11:22:20;5.97;;;3.30;;
7047;SDS011;3565;53.254;10.352;2022-10-17T11:24:51;4.13;;;2.80;;
7047;SDS011;3565;53.254;10.352;2022-10-17T11:27:22;4.07;;;3.20;;
7047;SDS011;3565;53.254;10.352;2022-10-17T11:29:51;4.97;;;2.93;;
7047;SDS011;3565;53.254;10.352;2022-10-17T11:32:21;5.37;;;3.27;;
7047;SDS011;3565;53.254;10.352;2022-10-17T11:34:53;6.80;;;3.10;;
7047;SDS011;3565;53.254;10.352;2022-10-17T11:37:24;3.40;;;3.13;;
7047;SDS011;3565;53.254;10.352;2022-10-17T11:39:56;5.23;;;2.97;;
7047;SDS011;3565;53.254;10.352;2022-10-17T11:42:27;6.57;;;3.00;;
7047;SDS011;3565;53.254;10.352;2022-10-17T11:45:00;3.60;;;2.87;;
7047;SDS011;3565;53.254;10.352;2022-10-17T11:47:33;3.57;;;3.10;;
7047;SDS011;3565;53.254;10.352;2022-10-17T11:50:10;5.30;;;3.13;;
7047;SDS011;3565;53.254;10.352;2022-10-17T11:52:41;7.93;;;3.17;;
7047;SDS011;3565;53.254;10.352;2022-10-17T11:55:13;4.90;;;3.20;;
7047;SDS011;3565;53.254;10.352;2022-10-17T11:57:48;5.43;;;3.43;;
7047;SDS011;3565;53.254;10.352;2022-10-17T12:00:42;5.10;;;3.30;;
7047;SDS011;3565;53.254;10.352;2022-10-17T12:03:15;5.43;;;3.30;;
7047;SDS011;3565;53.254;10.352;2022-10-17T12:05:56;4.53;;;3.50;;
7047;SDS011;3565;53.254;10.352;2022-10-17T12:08:29;6.47;;;3.30;;
7047;SDS011;3565;53.254;10.352;2022-10-17T12:11:02;7.57;;;3.80;;
7047;SDS011;3565;53.254;10.352;2022-10-17T12:16:36;3.73;;;3.40;;
7047;SDS011;3565;53.254;10.352;2022-10-17T12:22:20;5.27;;;3.07;;
7047;SDS011;3565;53.254;10.352;2022-10-17T12:24:57;5.77;;;3.80;;
7047;SDS011;3565;53.254;10.352;2022-10-17T12:30:18;6.43;;;3.60;;
7047;SDS011;3565;53.254;10.352;2022-10-17T12:42:29;5.33;;;4.17;;
7047;SDS011;3565;53.254;10.352;2022-10-17T12:51:03;4.60;;;3.73;;
7047;SDS011;3565;53.254;10.352;2022-10-17T12:53:36;6.40;;;3.87;;
7047;SDS011;3565;53.254;10.352;2022-10-17T12:56:06;5.67;;;3.77;;
7047;SDS011;3565;53.254;10.352;2022-10-17T12:58:35;7.33;;;3.97;;
7047;SDS011;3565;53.254;10.352;2022-10-17T13:01:08;4.50;;;3.73;;
7047;SDS011;3565;53.254;10.352;2022-10-17T13:03:41;4.63;;;3.87;;
7047;SDS011;3565;53.254;10.352;2022-10-17T13:06:13;6.63;;;3.90;;
7047;SDS011;3565;53.254;10.352;2022-10-17T13:08:44;9.67;;;3.67;;
7047;SDS011;3565;53.254;10.352;2022-10-17T13:11:16;5.47;;;4.00;;
7047;SDS011;3565;53.254;10.352;2022-10-17T13:13:51;8.97;;;3.77;;
7047;SDS011;3565;53.254;10.352;2022-10-17T13:16:27;5.03;;;4.00;;
7047;SDS011;3565;53.254;10.352;2022-10-17T13:18:58;7.90;;;4.20;;
7047;SDS011;3565;53.254;10.352;2022-10-17T13:21:28;9.10;;;4.47;;
7047;SDS011;3565;53.254;10.352;2022-10-17T13:23:57;7.90;;;4.20;;
7047;SDS011;3565;53.254;10.352;2022-10-17T13:26:27;5.67;;;4.20;;
7047;SDS011;3565;53.254;10.352;2022-10-17T13:29:02;7.63;;;4.87;;
7047;SDS011;3565;53.254;10.352;2022-10-17T13:31:33;4.90;;;4.40;;
7047;SDS011;3565;53.254;10.352;2022-10-17T13:34:04;5.70;;;4.67;;
7047;SDS011;3565;53.254;10.352;2022-10-17T13:36:34;7.37;;;4.50;;
7047;SDS011;3565;53.254;10.352;2022-10-17T13:39:07;6.77;;;4.07;;
7047;SDS011;3565;53.254;10.352;2022-10-17T13:41:36;5.60;;;4.77;;
7047;SDS011;3565;53.254;10.352;2022-10-17T13:44:09;14.97;;;4.87;;
7047;SDS011;3565;53.254;10.352;2022-10-17T13:46:40;4.97;;;4.43;;
7047;SDS011;3565;53.254;10.352;2022-10-17T13:49:10;7.80;;;4.30;;
7047;SDS011;3565;53.254;10.352;2022-10-17T13:51:45;7.60;;;4.70;;
7047;SDS011;3565;53.254;10.352;2022-10-17T13:54:24;6.53;;;4.70;;
7047;SDS011;3565;53.254;10.352;2022-10-17T13:57:17;9.20;;;4.50;;
7047;SDS011;3565;53.254;10.352;2022-10-17T13:59:49;8.93;;;5.10;;
7047;SDS011;3565;53.254;10.352;2022-10-17T14:02:22;8.53;;;5.90;;
7047;SDS011;3565;53.254;10.352;2022-10-17T14:05:02;8.10;;;5.80;;
7047;SDS011;3565;53.254;10.352;2022-10-17T14:07:37;9.20;;;5.60;;
7047;SDS011;3565;53.254;10.352;2022-10-17T14:10:16;7.63;;;5.40;;
7047;SDS011;3565;53.254;10.352;2022-10-17T14:12:48;7.67;;;5.43;;
7047;SDS011;3565;53.254;10.352;2022-10-17T14:15:18;11.57;;;6.30;;
7047;SDS011;3565;53.254;10.352;2022-10-17T14:17:53;7.13;;;6.13;;
7047;SDS011;3565;53.254;10.352;2022-10-17T14:20:24;7.63;;;6.27;;
7047;SDS011;3565;53.254;10.352;2022-10-17T14:22:54;10.33;;;7.10;;
7047;SDS011;3565;53.254;10.352;2022-10-17T14:25:27;10.13;;;7.20;;
7047;SDS011;3565;53.254;10.352;2022-10-17T14:28:00;8.47;;;6.90;;
7047;SDS011;3565;53.254;10.352;2022-10-17T14:30:34;7.33;;;6.53;;
7047;SDS011;3565;53.254;10.352;2022-10-17T14:33:05;7.73;;;6.87;;
7047;SDS011;3565;53.254;10.352;2022-10-17T14:35:36;9.27;;;7.03;;
7047;SDS011;3565;53.254;10.352;2022-10-17T14:38:05;9.57;;;7.33;;
7047;SDS011;3565;53.254;10.352;2022-10-17T14:40:35;11.63;;;7.70;;
7047;SDS011;3565;53.254;10.352;2022-10-17T14:43:03;11.60;;;7.33;;
7047;SDS011;3565;53.254;10.352;2022-10-17T14:45:34;7.57;;;6.80;;
7047;SDS011;3565;53.254;10.352;2022-10-17T14:48:07;9.63;;;7.40;;
7047;SDS011;3565;53.254;10.352;2022-10-17T14:50:37;8.60;;;6.87;;
7047;SDS011;3565;53.254;10.352;2022-10-17T14:53:18;9.33;;;7.27;;
7047;SDS011;3565;53.254;10.352;2022-10-17T14:55:54;8.00;;;7.00;;
7047;SDS011;3565;53.254;10.352;2022-10-17T14:58:24;11.17;;;6.90;;
7047;SDS011;3565;53.254;10.352;2022-10-17T15:00:54;7.13;;;6.13;;
7047;SDS011;3565;53.254;10.352;2022-10-17T15:03:23;8.77;;;6.10;;
7047;SDS011;3565;53.254;10.352;2022-10-17T15:05:53;9.30;;;6.20;;
7047;SDS011;3565;53.254;10.352;2022-10-17T15:08:22;8.50;;;6.17;;
7047;SDS011;3565;53.254;10.352;2022-10-17T15:10:51;6.87;;;6.17;;
7047;SDS011;3565;53.254;10.352;2022-10-17T15:13:20;10.07;;;6.50;;
7047;SDS011;3565;53.254;10.352;2022-10-17T15:15:49;9.67;;;6.60;;
7047;SDS011;3565;53.254;10.352;2022-10-17T15:18:18;6.90;;;6.20;;
7047;SDS011;3565;53.254;10.352;2022-10-17T15:20:47;9.03;;;7.40;;
7047;SDS011;3565;53.254;10.352;2022-10-17T15:23:16;9.47;;;7.67;;
7047;SDS011;3565;53.254;10.352;2022-10-17T15:25:46;8.23;;;7.33;;
7047;SDS011;3565;53.254;10.352;2022-10-17T15:28:14;11.00;;;7.27;;
7047;SDS011;3565;53.254;10.352;2022-10-17T15:30:44;8.70;;;7.57;;
7047;SDS011;3565;53.254;10.352;2022-10-17T15:33:12;8.00;;;6.97;;
7047;SDS011;3565;53.254;10.352;2022-10-17T15:35:41;9.70;;;7.50;;
7047;SDS011;3565;53.254;10.352;2022-10-17T15:38:11;8.60;;;7.07;;
7047;SDS011;3565;53.254;10.352;2022-10-17T15:40:42;8.37;;;7.57;;
7047;SDS011;3565;53.254;10.352;2022-10-17T15:43:12;8.40;;;7.23;;
7047;SDS011;3565;53.254;10.352;2022-10-17T15:45:41;10.33;;;7.20;;
7047;SDS011;3565;53.254;10.352;2022-10-17T15:48:19;9.37;;;7.13;;
7047;SDS011;3565;53.254;10.352;2022-10-17T15:50:42;12.43;;;7.57;;
7047;SDS011;3565;53.254;10.352;2022-10-17T15:53:12;9.77;;;8.10;;
7047;SDS011;3565;53.254;10.352;2022-10-17T15:55:40;13.23;;;7.60;;
7047;SDS011;3565;53.254;10.352;2022-10-17T15:58:11;11.77;;;8.47;;
7047;SDS011;3565;53.254;10.352;2022-10-17T16:00:40;9.97;;;7.43;;
7047;SDS011;3565;53.254;10.352;2022-10-17T16:03:09;11.53;;;8.17;;